Harbision Canyon (356) Station Data

Red Flag Warning: No
Fire Weather Zone: 250
SDGE Region: Eastern
Lat/Lon: 32.822/-116.829

Observations

Time Wind Speed/Gust Temp(F) RH Fuel Moist Fuel Temp(F) Dewpt(F) Tmax(F) Tmin(F) Accum Precip 10-min Precip SL Press(mb)
6/22 4:50am 300 2 G 3 59° 92% - - 56° 63.3° 58.3° - - -
6/22 4:40am 95 0 G 2 59° 92% - - 57° 63.3° 58.7° - - -
6/22 4:30am 288 0 G 1 59° 92% - - 57° 63.3° 58.7° - - -
6/22 4:20am 271 0 G 2 59° 92% - - 57° 63.3° 58.7° - - -
6/22 4:10am 247 1 G 3 59° 92% - - 57° 63.3° 58.7° - - -
6/22 4:00am 257 1 G 2 59° 92% - - 57° 63.3° 58.7° - - -
6/22 3:50am 257 1 G 3 59° 91% - - 56° 63.3° 58.7° - - -
6/22 3:40am 282 1 G 3 59° 91% - - 57° 63.3° 58.8° - - -
6/22 3:30am 327 1 G 2 59° 91% - - 57° 63.3° 59° - - -
6/22 3:20am 19 1 G 2 59° 91% - - 57° 63.3° 59.1° - - -
6/22 3:10am 84 0 G 1 59° 91% - - 57° 63.3° 59.1° - - -
6/22 3:00am 73 1 G 2 59° 91% - - 57° 63.3° 59.1° - - -
6/22 2:50am 98 1 G 1 59° 90% - - 57° 63.3° 59.1° - - -
6/22 2:40am 220 0 G 1 60° 90% - - 57° 63.3° 59.2° - - -
6/22 2:30am 36 0 G 1 60° 90% - - 57° 63.3° 59.4° - - -
6/22 2:20am 99 1 G 2 60° 90% - - 57° 63.3° 59.6° - - -
6/22 2:10am 193 0 G 2 60° 89% - - 57° 63.3° 59.6° - - -
6/22 2:00am 219 1 G 2 60° 89% - - 57° 63.3° 59.6° - - -
6/22 1:50am 216 2 G 2 60° 88% - - 57° 63.3° 59.8° - - -
6/22 1:40am 221 1 G 3 60° 87% - - 57° 63.3° 60° - - -
6/22 1:30am 219 1 G 2 61° 87% - - 57° 63.3° 60.5° - - -
6/22 1:20am 218 1 G 3 61° 86% - - 57° 63.3° 60.7° - - -
6/22 1:10am 219 1 G 2 61° 85% - - 57° 63.3° 61.1° - - -
6/22 1:00am 198 0 G 2 62° 84% - - 57° 63.3° 61.3° - - -
6/22 12:50am 203 1 G 3 62° 83% - - 57° 63.3° 61.6° - - -
6/22 12:40am 215 1 G 2 62° 82% - - 57° 63.3° 61.8° - - -
6/22 12:30am 222 1 G 2 62° 82% - - 57° 63.3° 62° - - -
6/22 12:20am 120 1 G 1 63° 82% - - 57° 63.3° 62.4° - - -
6/22 12:10am 139 0 G 1 63° 81% - - 57° 63.3° 62.8° - - -
6/22 12:00am 166 0 G 1 63° 81% - - 57° 96.9° 60.2° - - -
6/21 11:50pm 181 1 G 2 64° 80% - - 57° 96.9° 60.2° - - -
6/21 11:40pm 222 1 G 2 64° 79% - - 58° 96.9° 60.2° - - -
6/21 11:30pm 159 0 G 2 65° 78% - - 58° 96.9° 60.2° - - -
6/21 11:20pm 210 1 G 2 65° 77% - - 58° 96.9° 60.2° - - -
6/21 11:10pm 224 1 G 2 65° 77% - - 58° 96.9° 60.2° - - -
6/21 11:00pm 228 0 G 1 66° 76% - - 58° 96.9° 60.2° - - -
6/21 10:50pm 154 1 G 3 66° 76% - - 58° 96.9° 60.2° - - -
6/21 10:40pm 200 2 G 4 67° 74% - - 58° 96.9° 60.2° - - -
6/21 10:30pm 209 1 G 2 67° 73% - - 58° 96.9° 60.2° - - -
6/21 10:20pm 202 1 G 2 68° 72% - - 58° 96.9° 60.2° - - -
6/21 10:10pm 219 1 G 3 68° 71% - - 58° 96.9° 60.2° - - -
6/21 10:00pm 195 1 G 2 69° 70% - - 59° 96.9° 60.2° - - -
6/21 9:50pm 223 2 G 4 69° 69% - - 59° 96.9° 60.2° - - -
6/21 9:40pm 218 2 G 3 70° 67% - - 59° 96.9° 60.2° - - -
6/21 9:30pm 211 1 G 3 71° 66% - - 59° 96.9° 60.2° - - -
6/21 9:20pm 192 1 G 3 71° 65% - - 59° 96.9° 60.2° - - -
6/21 9:10pm 216 2 G 3 72° 63% - - 59° 96.9° 60.2° - - -
6/21 9:00pm 218 1 G 2 73° 61% - - 59° 96.9° 60.2° - - -
6/21 8:50pm 152 1 G 3 73° 61% - - 59° 96.9° 60.2° - - -
6/21 8:40pm 215 1 G 4 74° 59% - - 59° 96.9° 60.2° - - -
6/21 8:30pm 201 1 G 3 75° 57% - - 59° 96.9° 60.2° - - -
6/21 8:20pm 180 1 G 3 76° 56% - - 59° 96.9° 60.2° - - -
6/21 8:10pm 209 1 G 3 77° 55% - - 59° 96.9° 60.2° - - -
6/21 8:00pm 201 1 G 4 77° 54% - - 59° 96.9° 60.2° - - -
6/21 7:50pm 205 2 G 4 78° 52% - - 59° 96.9° 60.2° - - -
6/21 7:40pm 215 3 G 6 79° 50% - - 59° 96.9° 60.2° - - -
6/21 7:30pm 218 2 G 4 81° 47% - - 59° 96.9° 60.2° - - -
6/21 7:20pm 223 1 G 3 82° 45% - - 59° 96.9° 60.2° - - -
6/21 7:10pm 220 2 G 4 83° 44% - - 59° 96.9° 60.2° - - -
6/21 7:00pm 211 3 G 5 83° 44% - - 59° 96.9° 60.2° - - -
6/21 6:50pm 186 3 G 5 83° 44% - - 59° 96.9° 60.2° - - -
6/21 6:40pm 165 3 G 7 83° 44% - - 59° 96.9° 60.2° - - -
6/21 6:30pm 187 3 G 8 85° 41% - - 58° 96.9° 60.2° - - -
6/21 6:20pm 257 3 G 7 85° 39% - - 58° 96.9° 60.2° - - -
6/21 6:10pm 291 5 G 9 85° 39% - - 58° 96.9° 60.2° - - -
6/21 6:00pm 265 4 G 8 86° 38% - - 58° 96.9° 60.2° - - -
6/21 5:50pm 278 3 G 9 88° 36% - - 57° 96.9° 60.2° - - -
6/21 5:40pm 275 3 G 8 88° 35% - - 57° 96.9° 60.2° - - -
6/21 5:30pm 216 3 G 8 89° 35% - - 58° 96.9° 60.2° - - -
6/21 5:20pm 148 4 G 10 87° 37% - - 58° 96.9° 60.2° - - -
6/21 5:10pm 138 6 G 10 87° 38% - - 58° 96.9° 60.2° - - -
6/21 5:00pm 162 3 G 11 90° 34% - - 57° 96.9° 60.2° - - -
6/21 4:50pm 247 3 G 6 90° 32% - - 56° 96.9° 60.2° - - -
6/21 4:40pm 261 4 G 7 90° 33% - - 56° 96.9° 60.2° - - -
6/21 4:30pm 270 5 G 9 89° 33% - - 56° 96.9° 60.2° - - -
6/21 4:20pm 274 4 G 8 89° 33% - - 56° 96.9° 60.2° - - -
6/21 4:10pm 277 4 G 10 90° 32% - - 56° 96.9° 60.2° - - -
6/21 4:00pm 265 4 G 9 90° 32% - - 56° 96.9° 60.2° - - -
6/21 3:50pm 290 5 G 11 89° 33% - - 56° 96.9° 60.2° - - -
6/21 3:40pm 286 4 G 11 90° 32% - - 57° 96.9° 60.2° - - -
6/21 3:30pm 286 5 G 12 91° 32% - - 57° 96.9° 60.2° - - -
6/21 3:20pm 275 5 G 11 91° 31% - - 56° 96.9° 60.2° - - -
6/21 3:10pm 289 5 G 11 91° 31% - - 56° 96.9° 60.2° - - -
6/21 3:00pm 284 4 G 11 92° 30% - - 56° 96.9° 60.2° - - -
6/21 2:50pm 301 4 G 11 92° 30% - - 56° 96.9° 60.2° - - -
6/21 2:40pm 295 5 G 12 92° 30% - - 56° 96.9° 60.2° - - -
6/21 2:30pm 288 5 G 11 93° 29% - - 56° 96.9° 60.2° - - -
6/21 2:20pm 290 5 G 12 93° 29% - - 56° 96.9° 60.2° - - -
6/21 2:10pm 304 5 G 13 93° 28% - - 56° 96.9° 60.2° - - -
6/21 2:00pm 270 4 G 11 94° 28% - - 56° 96.9° 60.2° - - -
6/21 1:50pm 270 5 G 12 94° 28% - - 56° 96.9° 60.2° - - -
6/21 1:40pm 268 6 G 13 94° 28% - - 56° 96.9° 60.2° - - -
6/21 1:30pm 279 3 G 10 95° 27% - - 56° 96.9° 60.2° - - -
6/21 1:20pm 281 6 G 14 94° 28% - - 56° 96.9° 60.2° - - -
6/21 1:10pm 282 4 G 12 95° 27% - - 56° 96.9° 60.2° - - -
6/21 1:00pm 273 3 G 9 96° 26% - - 55° 96.9° 60.2° - - -
6/21 12:50pm 288 3 G 11 95° 27% - - 55° 96.1° 60.2° - - -
6/21 12:40pm 306 3 G 10 94° 27% - - 55° 95.4° 60.2° - - -
6/21 12:30pm 287 4 G 9 94° 28% - - 56° 94.4° 60.2° - - -
6/21 12:20pm 291 4 G 10 94° 28% - - 55° 94.4° 60.2° - - -
6/21 12:10pm 292 4 G 11 93° 28% - - 55° 94.4° 60.2° - - -
6/21 12:00pm 285 5 G 10 93° 28% - - 55° 94.4° 60.2° - - -
6/21 11:50am 270 4 G 8 93° 27% - - 54° 94.4° 60.2° - - -
6/21 11:40am 284 3 G 9 94° 27% - - 55° 94.4° 60.2° - - -
6/21 11:30am 227 3 G 8 93° 27% - - 55° 94.1° 60.2° - - -
6/21 11:20am 193 2 G 7 93° 28% - - 55° 93.6° 60.2° - - -
6/21 11:10am 176 3 G 6 92° 29% - - 55° 92.8° 60.2° - - -
6/21 11:00am 171 3 G 7 91° 30% - - 55° 91.6° 60.2° - - -
6/21 10:50am 186 3 G 5 90° 31% - - 56° 91.2° 60.2° - - -
6/21 10:40am 185 3 G 6 89° 32% - - 55° 89.8° 60.2° - - -
6/21 10:30am 204 3 G 7 88° 32% - - 55° 88.5° 60.2° - - -
6/21 10:20am 212 3 G 5 87° 32% - - 54° 87.7° 60.2° - - -
6/21 10:10am 215 3 G 6 86° 34% - - 54° 86.9° 60.2° - - -
6/21 10:00am 208 3 G 6 85° 34% - - 53° 85.7° 60.2° - - -
6/21 9:50am 208 3 G 6 85° 34% - - 53° 85.1° 60.2° - - -
6/21 9:40am 202 2 G 5 84° 36% - - 54° 84.6° 60.2° - - -
6/21 9:30am 189 2 G 4 83° 39% - - 55° 83.6° 60.2° - - -
6/21 9:20am 201 1 G 3 82° 42% - - 56° 82.4° 60.2° - - -
6/21 9:10am 175 1 G 3 81° 44% - - 57° 81.6° 60.2° - - -
6/21 9:00am 175 1 G 4 79° 46% - - 57° 80.2° 60.2° - - -
6/21 8:50am 186 2 G 3 77° 49% - - 57° 78° 60.2° - - -
6/21 8:40am 192 1 G 2 77° 49% - - 56° 77.6° 60.2° - - -
6/21 8:30am 185 2 G 3 75° 51% - - 56° 76° 60.2° - - -
6/21 8:20am 206 1 G 3 74° 51% - - 55° 75° 60.2° - - -
6/21 8:10am 150 1 G 2 73° 52% - - 55° 74° 60.2° - - -
6/21 8:00am 184 1 G 2 73° 54% - - 55° 73.4° 60.2° - - -
6/21 7:50am 73 0 G 2 71° 58% - - 55° 72.4° 60.2° - - -
6/21 7:40am 114 1 G 2 69° 61% - - 55° 69.3° 60.2° - - -
6/21 7:30am 188 1 G 1 68° 63% - - 55° 68.3° 60.2° - - -
6/21 7:20am 208 0 G 2 67° 66% - - 55° 67.5° 60.2° - - -
6/21 7:10am 122 0 G 1 65° 71% - - 55° 67° 60.2° - - -
6/21 7:00am 0 0 G 0 62° 75% - - 54° 67° 60.2° - - -
6/21 6:50am 0 0 G 0 62° 75% - - 54° 67° 60.2° - - -
6/21 6:40am 162 0 G 1 62° 75% - - 54° 67° 60.2° - - -
6/21 6:30am 22 1 G 1 61° 75% - - 53° 67° 60.2° - - -
6/21 6:20am 35 1 G 2 61° 75% - - 53° 67° 60.2° - - -
6/21 6:10am 3 1 G 2 61° 77% - - 54° 67° 60.2° - - -
6/21 6:00am 17 0 G 1 61° 77% - - 54° 67° 60.2° - - -
6/21 5:50am 13 0 G 1 61° 77% - - 53° 67° 60.2° - - -
6/21 5:40am 322 0 G 1 61° 77% - - 53° 67° 60.4° - - -
6/21 5:30am 38 0 G 1 61° 75% - - 53° 67° 60.4° - - -
6/21 5:20am 280 1 G 3 62° 76% - - 54° 67° 61.3° - - -
6/21 5:10am 49 1 G 2 62° 75% - - 54° 67° 61.3° - - -
6/21 5:00am 321 1 G 2 62° 75% - - 54° 67° 61.6° - - -
6/21 4:50am 108 1 G 2 62° 76% - - 54° 67° 61.6° - - -
6/21 4:40am 94 1 G 1 62° 75% - - 54° 67° 61.6° - - -
6/21 4:30am 99 1 G 2 63° 76% - - 55° 67° 61.6° - - -
6/21 4:20am 32 1 G 2 62° 77% - - 54° 67° 61.6° - - -
6/21 4:10am 155 0 G 1 62° 76% - - 54° 67° 61.8° - - -
6/21 4:00am 4 1 G 2 62° 77% - - 55° 67° 61.8° - - -
6/21 3:50am 22 1 G 2 62° 76% - - 55° 67° 61.9° - - -
6/21 3:40am 252 0 G 1 62° 76% - - 55° 67° 62.1° - - -
6/21 3:30am 230 1 G 2 63° 74% - - 55° 67° 62.4° - - -
6/21 3:20am 5 1 G 1 63° 76% - - 55° 67° 62.7° - - -
6/21 3:10am 37 0 G 1 63° 75% - - 55° 67° 62.8° - - -
6/21 3:00am 356 0 G 1 63° 76% - - 55° 67° 63° - - -
6/21 2:50am 334 0 G 1 63° 75% - - 56° 67° 63.2° - - -
6/21 2:40am 59 0 G 1 64° 75% - - 56° 67° 63.2° - - -
6/21 2:30am 287 1 G 2 64° 75% - - 56° 67° 63.5° - - -
6/21 2:20am 334 1 G 2 64° 75% - - 56° 67° 63.5° - - -
6/21 2:10am 154 1 G 1 64° 73% - - 55° 67° 63.6° - - -
6/21 2:00am 259 1 G 2 64° 73% - - 56° 67° 64.2° - - -
6/21 1:50am 137 0 G 1 65° 72% - - 56° 67° 64.3° - - -
6/21 1:40am 112 0 G 1 65° 72% - - 56° 67° 65.1° - - -
6/21 1:30am 94 0 G 1 66° 71% - - 56° 67° 65.2° - - -
6/21 1:20am 59 0 G 1 66° 71% - - 56° 67° 65.2° - - -
6/21 1:10am 68 1 G 2 66° 71% - - 56° 67° 65.2° - - -
6/21 1:00am 33 1 G 1 66° 71% - - 56° 67° 65.2° - - -
6/21 12:50am 16 1 G 1 65° 71% - - 56° 67° 65.2° - - -
6/21 12:40am 24 1 G 2 66° 71% - - 56° 67° 65.3° - - -
6/21 12:30am 351 0 G 1 66° 70% - - 56° 67° 65.6° - - -
6/21 12:20am 19 1 G 1 66° 71% - - 56° 67° 65.9° - - -
6/21 12:10am 62 0 G 1 67° 70% - - 57° 67° 66.5° - - -
6/21 12:00am 0 0 G 0 67° 67% - - 56° 100.2° 65.4° - - -
6/20 11:50pm 183 0 G 1 68° 65% - - 56° 100.2° 65.4° - - -
6/20 11:40pm 53 0 G 1 68° 65% - - 56° 100.2° 65.4° - - -
6/20 11:30pm 44 0 G 0 69° 64% - - 56° 100.2° 65.4° - - -
6/20 11:20pm 153 0 G 1 69° 62% - - 56° 100.2° 65.4° - - -
6/20 11:10pm 207 0 G 1 70° 61% - - 56° 100.2° 65.4° - - -
6/20 11:00pm 102 0 G 1 70° 60% - - 56° 100.2° 65.4° - - -
6/20 10:50pm 7 0 G 1 71° 60% - - 56° 100.2° 65.4° - - -
6/20 10:40pm 90 0 G 1 71° 58% - - 56° 100.2° 65.4° - - -
6/20 10:30pm 29 0 G 1 72° 56% - - 56° 100.2° 65.4° - - -
6/20 10:20pm 174 0 G 2 73° 54% - - 55° 100.2° 65.4° - - -
6/20 10:10pm 11 1 G 2 74° 52% - - 55° 100.2° 65.4° - - -
6/20 10:00pm 30 1 G 3 75° 50% - - 55° 100.2° 65.4° - - -
6/20 9:50pm 27 1 G 2 76° 48% - - 55° 100.2° 65.4° - - -
6/20 9:40pm 33 1 G 2 76° 47% - - 55° 100.2° 65.4° - - -
6/20 9:30pm 27 1 G 2 77° 46% - - 55° 100.2° 65.4° - - -
6/20 9:20pm 24 2 G 4 77° 46% - - 55° 100.2° 65.4° - - -
6/20 9:10pm 19 3 G 5 78° 45% - - 55° 100.2° 65.4° - - -
6/20 9:00pm 28 2 G 4 78° 45% - - 55° 100.2° 65.4° - - -
6/20 8:50pm 12 2 G 4 79° 45% - - 55° 100.2° 65.4° - - -
6/20 8:40pm 35 1 G 3 79° 44% - - 56° 100.2° 65.4° - - -
6/20 8:30pm 28 1 G 3 80° 43% - - 56° 100.2° 65.4° - - -
6/20 8:20pm 36 1 G 2 82° 40% - - 55° 100.2° 65.4° - - -
6/20 8:10pm 5 0 G 1 83° 37% - - 55° 100.2° 65.4° - - -
6/20 8:00pm 271 1 G 1 85° 36% - - 55° 100.2° 65.4° - - -
6/20 7:50pm 335 0 G 1 85° 35% - - 55° 100.2° 65.4° - - -
6/20 7:40pm 240 1 G 2 86° 34% - - 54° 100.2° 65.4° - - -
6/20 7:30pm 185 1 G 3 88° 32% - - 54° 100.2° 65.4° - - -
6/20 7:20pm 209 1 G 3 89° 31% - - 54° 100.2° 65.4° - - -
6/20 7:10pm 214 1 G 4 89° 31% - - 54° 100.2° 65.4° - - -
6/20 7:00pm 158 2 G 6 88° 31% - - 54° 100.2° 65.4° - - -
6/20 6:50pm 142 4 G 8 88° 32% - - 54° 100.2° 65.4° - - -
6/20 6:40pm 157 3 G 7 89° 31% - - 55° 100.2° 65.4° - - -
6/20 6:30pm 154 4 G 7 90° 30% - - 55° 100.2° 65.4° - - -
6/20 6:20pm 183 3 G 7 91° 29% - - 54° 100.2° 65.4° - - -
6/20 6:10pm 227 3 G 8 92° 26% - - 52° 100.2° 65.4° - - -
6/20 6:00pm 251 4 G 7 92° 25% - - 51° 100.2° 65.4° - - -